Time;durP1;ratioP1;P1;durP2;ratioP2;P2;SDS_P1;SDS_P2;PMS_P1;PMS_P2;Temp;Humidity;BMP_temperature;BMP_pressure;BME280_temperature;BME280_humidity;BME280_pressure;Samples;Min_cycle;Max_cycle;Signal;HPM_P1;HPM_P2
2022/05/31 00:01:45;;;;;;;3.87;1.50;;;10.70;99.90;;;;;;5010291;28;20191;-35
2022/05/31 00:04:11;;;;;;;3.20;1.60;;;10.70;99.90;;;;;;4993457;28;20275;-33
2022/05/31 00:06:37;;;;;;;2.10;1.90;;;10.60;99.90;;;;;;4994193;28;20289;-34
2022/05/31 00:09:03;;;;;;;2.17;1.97;;;10.60;99.90;;;;;;5015523;28;20175;-34
2022/05/31 00:11:30;;;;;;;2.50;2.03;;;10.60;99.90;;;;;;4997635;28;20258;-33
2022/05/31 00:13:55;;;;;;;3.63;1.90;;;10.60;99.90;;;;;;5013982;28;20182;-37
2022/05/31 00:16:21;;;;;;;2.73;2.00;;;10.50;99.90;;;;;;4997803;28;20183;-34
2022/05/31 00:18:47;;;;;;;3.90;1.97;;;10.50;99.90;;;;;;5013964;28;20217;-35
2022/05/31 00:21:13;;;;;;;2.03;1.63;;;10.50;99.90;;;;;;5014023;28;20214;-35
2022/05/31 00:23:41;;;;;;;2.87;2.00;;;10.50;99.90;;;;;;4997686;28;20182;-37
2022/05/31 00:26:08;;;;;;;3.60;2.10;;;10.50;99.90;;;;;;5013698;28;20202;-34
2022/05/31 00:28:33;;;;;;;3.13;2.23;;;10.50;99.90;;;;;;4997515;28;20203;-33
2022/05/31 00:30:59;;;;;;;1.97;1.67;;;10.40;99.90;;;;;;4997375;28;20214;-36
2022/05/31 00:33:26;;;;;;;2.43;2.00;;;10.30;99.90;;;;;;4997521;28;20711;-34
2022/05/31 00:35:53;;;;;;;2.60;2.10;;;10.30;99.90;;;;;;4997285;28;20183;-34
2022/05/31 00:38:20;;;;;;;3.03;2.00;;;10.30;99.90;;;;;;4997154;28;20206;-32
2022/05/31 00:40:47;;;;;;;3.23;2.30;;;10.30;99.90;;;;;;4997058;28;20179;-35
2022/05/31 00:43:16;;;;;;;2.90;2.37;;;10.20;99.90;;;;;;4997172;28;20186;-33
2022/05/31 00:45:54;;;;;;;4.70;2.70;;;10.10;99.90;;;;;;5014544;28;20183;-35
2022/05/31 00:48:34;;;;;;;4.20;2.43;;;9.90;99.90;;;;;;4996863;28;20581;-34
2022/05/31 00:51:05;;;;;;;3.73;2.40;;;9.80;99.90;;;;;;4996591;28;20705;-34
2022/05/31 00:53:36;;;;;;;3.33;2.57;;;9.80;99.90;;;;;;4997028;28;20183;-35
2022/05/31 00:56:09;;;;;;;3.90;2.80;;;9.70;99.90;;;;;;5028280;28;20647;-33
2022/05/31 00:58:39;;;;;;;3.43;2.80;;;9.70;99.90;;;;;;5016350;28;20195;-32
2022/05/31 01:01:14;;;;;;;4.23;2.87;;;9.60;99.90;;;;;;5016583;28;20224;-35
2022/05/31 01:03:42;;;;;;;2.80;2.50;;;9.50;99.90;;;;;;5032895;28;20212;-33
2022/05/31 01:06:12;;;;;;;4.60;2.53;;;9.50;99.90;;;;;;5032502;28;20179;-34
2022/05/31 01:08:45;;;;;;;4.73;2.73;;;9.50;99.90;;;;;;5016380;28;20213;-35
2022/05/31 01:11:40;;;;;;;3.73;2.70;;;9.50;99.90;;;;;;5032255;28;20631;-34
2022/05/31 01:14:07;;;;;;;2.90;2.70;;;9.40;99.90;;;;;;5032785;28;20350;-34
2022/05/31 01:17:03;;;;;;;3.73;2.63;;;9.40;99.90;;;;;;5032576;28;20224;-35
2022/05/31 01:19:55;;;;;;;3.27;2.73;;;9.30;99.90;;;;;;5001870;28;20233;-33
2022/05/31 01:22:26;;;;;;;5.67;2.50;;;9.20;99.90;;;;;;5032286;28;20183;-35
2022/05/31 01:25:22;;;;;;;3.43;2.63;;;9.20;99.90;;;;;;5026344;28;20191;-34
2022/05/31 01:28:25;;;;;;;3.20;2.53;;;9.20;99.90;;;;;;5012588;28;20251;-35
2022/05/31 01:31:01;;;;;;;3.37;2.50;;;9.20;99.90;;;;;;5013957;28;20203;-33
2022/05/31 01:33:44;;;;;;;3.33;2.80;;;9.10;99.90;;;;;;4996142;28;20220;-33
2022/05/31 01:36:25;;;;;;;4.57;2.80;;;9.10;99.90;;;;;;4996092;28;20202;-32
2022/05/31 01:39:05;;;;;;;4.17;2.33;;;9.10;99.90;;;;;;5011826;28;20214;-34
2022/05/31 01:41:53;;;;;;;3.57;2.10;;;9.10;99.90;;;;;;4996251;28;20183;-33
2022/05/31 01:44:21;;;;;;;4.17;2.40;;;9.10;99.90;;;;;;5012321;28;20183;-34
2022/05/31 01:46:49;;;;;;;4.30;2.40;;;9.00;99.90;;;;;;4996001;28;20207;-34
2022/05/31 01:49:16;;;;;;;4.00;2.30;;;9.00;99.90;;;;;;5011867;28;20215;-33
2022/05/31 01:51:44;;;;;;;4.27;2.70;;;9.00;99.90;;;;;;4995952;28;20215;-32
2022/05/31 01:54:12;;;;;;;2.50;2.20;;;9.00;99.90;;;;;;4995552;28;20183;-35
2022/05/31 01:56:41;;;;;;;4.37;2.53;;;9.00;99.90;;;;;;4995993;28;20186;-32
2022/05/31 01:59:08;;;;;;;5.70;2.73;;;8.90;99.90;;;;;;5011729;28;20186;-34
2022/05/31 02:01:37;;;;;;;4.10;2.53;;;8.90;99.90;;;;;;4995602;28;20647;-36
2022/05/31 02:04:04;;;;;;;2.93;2.70;;;8.90;99.90;;;;;;5011425;28;20194;-32
2022/05/31 02:06:35;;;;;;;3.43;2.50;;;9.00;99.90;;;;;;5011778;28;20178;-33
2022/05/31 02:09:02;;;;;;;3.67;3.00;;;9.00;99.90;;;;;;4995460;28;20191;-35
2022/05/31 02:11:28;;;;;;;3.23;2.93;;;8.90;99.90;;;;;;4995503;28;20637;-33
2022/05/31 02:14:01;;;;;;;2.93;2.73;;;8.80;99.90;;;;;;4996866;28;20225;-36
2022/05/31 02:16:28;;;;;;;3.70;2.53;;;8.80;99.90;;;;;;4995741;28;20277;-33
2022/05/31 02:19:30;;;;;;;3.90;2.70;;;8.80;99.90;;;;;;4991905;28;20207;-33
2022/05/31 02:21:59;;;;;;;4.37;2.73;;;8.80;99.90;;;;;;5009198;28;20190;-33
2022/05/31 02:24:26;;;;;;;2.80;2.60;;;8.80;99.90;;;;;;5013159;28;20175;-33
2022/05/31 02:26:54;;;;;;;2.87;2.43;;;8.80;99.90;;;;;;4995663;28;20197;-33
2022/05/31 02:29:28;;;;;;;6.00;2.97;;;8.80;99.90;;;;;;4995511;28;20182;-32
2022/05/31 02:31:57;;;;;;;3.53;2.73;;;8.80;99.90;;;;;;5011106;28;20320;-34
2022/05/31 02:34:26;;;;;;;2.83;2.37;;;8.80;99.90;;;;;;4995553;28;20175;-33
2022/05/31 02:36:53;;;;;;;3.17;2.70;;;8.80;99.90;;;;;;5011840;28;20197;-34
2022/05/31 02:39:20;;;;;;;3.10;2.80;;;8.60;99.90;;;;;;5011341;28;20183;-37
2022/05/31 02:41:48;;;;;;;3.73;2.90;;;8.60;99.90;;;;;;4996308;28;20550;-33
2022/05/31 02:44:14;;;;;;;3.33;2.63;;;8.70;99.90;;;;;;5011692;28;20186;-34
2022/05/31 02:46:42;;;;;;;3.47;3.17;;;8.70;99.90;;;;;;4995794;28;20178;-34
2022/05/31 02:49:08;;;;;;;2.97;2.60;;;8.60;99.90;;;;;;4995129;28;20191;-34
2022/05/31 02:51:36;;;;;;;3.13;2.70;;;8.70;99.90;;;;;;5011322;28;20214;-35
2022/05/31 02:54:04;;;;;;;3.70;3.07;;;8.70;99.90;;;;;;5011245;28;20187;-36
2022/05/31 02:56:50;;;;;;;3.30;2.60;;;8.70;99.90;;;;;;5011545;28;20218;-36
2022/05/31 02:59:55;;;;;;;3.10;2.80;;;8.80;99.90;;;;;;4971083;28;20308;-37
2022/05/31 03:02:39;;;;;;;2.90;2.60;;;8.70;99.90;;;;;;4971049;28;20190;-35
2022/05/31 03:05:24;;;;;;;3.40;3.10;;;8.70;99.90;;;;;;5000452;28;20201;-34
2022/05/31 03:07:50;;;;;;;3.03;2.73;;;8.60;99.90;;;;;;5012606;28;20206;-32
2022/05/31 03:10:20;;;;;;;3.10;2.80;;;8.60;99.90;;;;;;5011180;28;20215;-32
2022/05/31 03:12:48;;;;;;;2.57;2.37;;;8.60;99.90;;;;;;4994473;28;20189;-36
2022/05/31 03:15:17;;;;;;;3.40;2.60;;;8.50;99.90;;;;;;4994276;28;20274;-35
2022/05/31 03:17:56;;;;;;;3.10;2.53;;;8.60;99.90;;;;;;5035378;23;20236;-35
2022/05/31 03:20:30;;;;;;;3.10;2.60;;;8.50;99.90;;;;;;5070048;28;20173;-34
2022/05/31 03:23:02;;;;;;;5.77;3.00;;;8.50;99.90;;;;;;5070134;28;20274;-35
2022/05/31 03:25:29;;;;;;;4.67;3.07;;;8.40;99.90;;;;;;5053742;28;20196;-35
2022/05/31 03:27:59;;;;;;;2.63;2.43;;;8.30;99.90;;;;;;5053461;28;20212;-34
2022/05/31 03:30:25;;;;;;;5.10;2.70;;;8.30;99.90;;;;;;5049228;28;20712;-35
2022/05/31 03:32:53;;;;;;;4.43;2.57;;;8.10;99.90;;;;;;5013597;28;20199;-35
2022/05/31 03:35:19;;;;;;;4.40;2.70;;;8.00;99.90;;;;;;5014441;28;20185;-34
2022/05/31 03:37:47;;;;;;;4.10;3.37;;;8.00;99.90;;;;;;5048807;28;20207;-35
2022/05/31 03:41:01;;;;;;;3.50;2.93;;;7.90;99.90;;;;;;5039434;28;20192;-34
2022/05/31 03:43:45;;;;;;;4.00;3.40;;;7.80;99.90;;;;;;5034948;28;20197;-35
2022/05/31 03:46:24;;;;;;;3.77;3.30;;;7.70;99.90;;;;;;5050165;28;20199;-34
2022/05/31 03:49:09;;;;;;;3.30;3.00;;;7.60;99.90;;;;;;5051306;28;20205;-35
2022/05/31 03:51:43;;;;;;;4.13;3.20;;;7.50;99.90;;;;;;5034385;28;20339;-34
2022/05/31 03:54:30;;;;;;;5.90;3.00;;;7.50;99.90;;;;;;5052209;28;20198;-34
2022/05/31 03:57:17;;;;;;;5.97;2.87;;;7.40;99.90;;;;;;5072488;28;20187;-35
2022/05/31 03:59:49;;;;;;;3.50;3.20;;;7.30;99.90;;;;;;5054128;28;20314;-34
2022/05/31 04:02:16;;;;;;;5.90;3.43;;;7.30;99.90;;;;;;5051326;28;20213;-34
2022/05/31 04:04:43;;;;;;;3.87;3.07;;;7.30;99.90;;;;;;5068552;28;20178;-35
2022/05/31 04:07:09;;;;;;;4.80;3.10;;;7.40;99.90;;;;;;5052944;28;20173;-34
2022/05/31 04:09:36;;;;;;;3.63;2.80;;;7.40;99.90;;;;;;5061801;28;20189;-36
2022/05/31 04:12:12;;;;;;;4.63;2.90;;;7.50;99.90;;;;;;5041337;28;20235;-34
2022/05/31 04:15:08;;;;;;;4.80;3.17;;;7.50;99.90;;;;;;4981988;28;20200;-34
2022/05/31 04:17:36;;;;;;;4.77;2.97;;;7.50;99.90;;;;;;5042583;28;20253;-35
2022/05/31 04:20:06;;;;;;;3.50;2.80;;;7.50;99.90;;;;;;5031849;28;20226;-34
2022/05/31 04:22:34;;;;;;;3.60;3.13;;;7.60;99.90;;;;;;5037986;28;20239;-35
2022/05/31 04:25:20;;;;;;;3.67;2.83;;;7.60;99.90;;;;;;5040627;28;20222;-35
2022/05/31 04:28:05;;;;;;;3.50;2.93;;;7.70;99.90;;;;;;5040690;28;20251;-34
2022/05/31 04:30:49;;;;;;;3.47;3.17;;;7.80;99.90;;;;;;5038778;28;20241;-34
2022/05/31 04:33:25;;;;;;;3.20;2.90;;;7.90;99.90;;;;;;5039089;28;20177;-35
2022/05/31 04:36:03;;;;;;;3.53;3.10;;;8.00;99.90;;;;;;5037888;28;20181;-34
2022/05/31 04:38:30;;;;;;;3.93;3.17;;;8.10;99.90;;;;;;5045910;28;20256;-35
2022/05/31 04:41:03;;;;;;;3.37;2.97;;;8.20;99.90;;;;;;5039174;28;20211;-35
2022/05/31 04:43:51;;;;;;;3.73;3.30;;;8.20;99.90;;;;;;5039733;28;20196;-36
2022/05/31 04:46:26;;;;;;;4.47;3.57;;;8.40;99.90;;;;;;5028871;28;20186;-38
2022/05/31 04:49:02;;;;;;;4.47;3.20;;;8.50;99.90;;;;;;5044092;28;20193;-35
2022/05/31 04:51:32;;;;;;;5.77;3.53;;;8.60;99.90;;;;;;5027230;28;20288;-35
2022/05/31 04:54:01;;;;;;;3.80;3.37;;;8.70;99.90;;;;;;5036821;28;20170;-37
2022/05/31 04:56:45;;;;;;;5.10;3.37;;;8.80;99.90;;;;;;5042391;28;20193;-36
2022/05/31 04:59:12;;;;;;;4.17;3.17;;;8.80;99.90;;;;;;5028028;28;20198;-35
2022/05/31 05:01:40;;;;;;;3.53;2.97;;;8.90;99.90;;;;;;5044314;28;20178;-35
2022/05/31 05:04:12;;;;;;;3.43;3.13;;;8.90;99.90;;;;;;5036476;28;20180;-35
2022/05/31 05:06:50;;;;;;;2.97;2.73;;;9.00;99.90;;;;;;5037517;28;20196;-34
2022/05/31 05:09:20;;;;;;;4.53;3.30;;;9.10;99.90;;;;;;5037021;28;20265;-33
2022/05/31 05:12:06;;;;;;;5.23;3.03;;;9.20;99.90;;;;;;5039988;28;20622;-33
2022/05/31 05:14:36;;;;;;;5.10;3.40;;;9.20;99.90;;;;;;5040354;28;20180;-33
2022/05/31 05:17:07;;;;;;;6.67;3.50;;;9.30;99.90;;;;;;5027269;28;20207;-34
2022/05/31 05:19:40;;;;;;;4.00;3.40;;;9.30;99.90;;;;;;5022072;28;20174;-34
2022/05/31 05:22:06;;;;;;;4.00;3.60;;;9.40;99.90;;;;;;5032513;28;20216;-34
2022/05/31 05:24:32;;;;;;;4.40;3.50;;;9.50;99.90;;;;;;5038983;28;20234;-34
2022/05/31 05:27:27;;;;;;;3.53;3.23;;;9.60;99.90;;;;;;5060338;28;20207;-33
2022/05/31 05:32:41;;;;;;;5.10;3.03;;;9.70;99.90;;;;;;5073155;28;20189;-33
2022/05/31 05:35:13;;;;;;;4.83;2.90;;;9.70;99.90;;;;;;5056052;28;20177;-33
2022/05/31 05:37:41;;;;;;;5.00;3.20;;;9.70;99.90;;;;;;5055725;28;20286;-33
2022/05/31 05:40:08;;;;;;;7.53;3.30;;;9.90;99.90;;;;;;5055247;28;20181;-33
2022/05/31 05:42:40;;;;;;;5.00;3.13;;;9.90;99.90;;;;;;5031872;28;20197;-34
2022/05/31 05:45:07;;;;;;;4.17;2.97;;;10.10;99.90;;;;;;5031631;28;20186;-33
2022/05/31 05:47:33;;;;;;;5.30;3.17;;;10.20;99.90;;;;;;5014991;28;20213;-33
2022/05/31 05:49:59;;;;;;;3.57;3.23;;;10.30;99.90;;;;;;5015347;28;20187;-34
2022/05/31 05:52:48;;;;;;;3.53;3.10;;;10.40;99.90;;;;;;5033292;28;20201;-33
2022/05/31 05:55:41;;;;;;;4.07;2.77;;;10.50;99.90;;;;;;5041074;28;20238;-33
2022/05/31 05:58:25;;;;;;;5.63;3.20;;;10.50;99.90;;;;;;5073335;28;20216;-33
2022/05/31 06:01:15;;;;;;;5.07;3.20;;;10.50;99.90;;;;;;5072136;28;20184;-34
2022/05/31 06:03:56;;;;;;;3.53;3.23;;;10.60;99.90;;;;;;5071219;28;20169;-34
2022/05/31 06:06:23;;;;;;;4.57;3.53;;;10.60;99.90;;;;;;5054640;28;20177;-34
2022/05/31 06:09:00;;;;;;;4.33;3.27;;;10.70;99.90;;;;;;5054568;28;20235;-35
2022/05/31 06:11:35;;;;;;;5.00;3.27;;;10.80;99.90;;;;;;5070963;28;20712;-34
2022/05/31 06:14:20;;;;;;;3.40;3.10;;;10.90;99.90;;;;;;5070924;28;20189;-33
2022/05/31 06:16:51;;;;;;;5.47;3.50;;;11.00;99.90;;;;;;5054531;28;20234;-34
2022/05/31 06:19:19;;;;;;;4.87;3.90;;;11.10;99.90;;;;;;5070930;28;20213;-33
2022/05/31 06:21:48;;;;;;;5.17;3.33;;;11.20;99.90;;;;;;5054628;28;20181;-33
2022/05/31 06:24:23;;;;;;;4.03;3.63;;;11.40;99.90;;;;;;5052990;28;20181;-37
2022/05/31 06:26:51;;;;;;;3.70;3.37;;;11.60;99.90;;;;;;5034411;28;20178;-34
2022/05/31 06:29:17;;;;;;;6.17;3.53;;;11.80;99.90;;;;;;5051746;28;20207;-34
2022/05/31 06:31:43;;;;;;;4.63;3.60;;;12.00;99.90;;;;;;5029951;28;20242;-34
2022/05/31 06:34:24;;;;;;;3.70;3.23;;;12.20;99.90;;;;;;5041175;28;20273;-34
2022/05/31 06:37:23;;;;;;;3.80;3.40;;;12.50;99.90;;;;;;5031055;28;20209;-33
2022/05/31 06:39:49;;;;;;;4.37;3.37;;;12.80;99.90;;;;;;5021984;28;20174;-34
2022/05/31 06:42:37;;;;;;;4.53;3.30;;;13.10;99.90;;;;;;5025557;28;20189;-33
2022/05/31 06:45:22;;;;;;;6.70;4.03;;;13.40;99.90;;;;;;5034896;28;20272;-33
2022/05/31 06:48:18;;;;;;;4.50;2.83;;;13.50;99.90;;;;;;4993916;28;20651;-34
2022/05/31 06:51:04;;;;;;;3.77;3.03;;;13.70;99.90;;;;;;5031867;28;20260;-34
2022/05/31 06:56:51;;;;;;;3.40;3.10;;;13.80;99.90;;;;;;5021367;28;20207;-34
2022/05/31 06:59:39;;;;;;;4.10;3.20;;;14.20;99.90;;;;;;5031139;28;20191;-34
2022/05/31 07:02:06;;;;;;;3.40;2.93;;;14.50;99.90;;;;;;5014336;28;20184;-34
2022/05/31 07:04:34;;;;;;;4.77;3.10;;;14.70;99.90;;;;;;5029925;28;20293;-35
2022/05/31 07:07:00;;;;;;;2.93;2.70;;;14.80;99.90;;;;;;5030149;28;20205;-36
2022/05/31 07:09:45;;;;;;;3.70;3.10;;;15.00;99.90;;;;;;5030310;28;20201;-36
2022/05/31 07:12:18;;;;;;;4.20;3.40;;;14.90;99.90;;;;;;5014345;28;20206;-34
2022/05/31 07:15:04;;;;;;;3.93;3.10;;;15.10;99.90;;;;;;5030294;28;20189;-34
2022/05/31 07:18:08;;;;;;;6.80;3.23;;;15.30;99.90;;;;;;4988755;28;20782;-34
2022/05/31 07:20:35;;;;;;;4.10;2.93;;;15.20;99.90;;;;;;4989111;28;20183;-34
2022/05/31 07:23:01;;;;;;;3.30;3.00;;;15.40;99.90;;;;;;5008516;28;20186;-34
2022/05/31 07:25:30;;;;;;;4.60;2.83;;;15.50;99.90;;;;;;5052429;28;20189;-35
2022/05/31 07:28:03;;;;;;;2.97;2.67;;;15.70;99.90;;;;;;5069993;28;20291;-35
2022/05/31 07:30:29;;;;;;;4.23;2.80;;;15.90;99.90;;;;;;5052974;28;20177;-34
2022/05/31 07:32:57;;;;;;;3.57;2.80;;;16.20;99.90;;;;;;5069750;28;20173;-38
2022/05/31 07:35:23;;;;;;;2.63;2.40;;;16.50;99.90;;;;;;5052660;28;20181;-35
2022/05/31 07:37:49;;;;;;;6.27;2.77;;;16.60;99.90;;;;;;5053039;28;20189;-36
2022/05/31 07:40:19;;;;;;;4.63;2.90;;;16.90;99.90;;;;;;5053593;28;20260;-37
2022/05/31 07:42:44;;;;;;;4.93;3.10;;;16.90;99.90;;;;;;5052928;28;20264;-36
2022/05/31 07:45:11;;;;;;;2.70;2.50;;;16.90;99.90;;;;;;5052684;28;20188;-34
2022/05/31 07:47:37;;;;;;;2.80;2.40;;;16.90;99.90;;;;;;5052618;28;20264;-35
2022/05/31 07:50:05;;;;;;;3.57;2.20;;;17.00;99.90;;;;;;5025128;28;20178;-35
2022/05/31 07:52:37;;;;;;;3.73;2.20;;;17.30;99.90;;;;;;5030632;28;20268;-35
2022/05/31 07:55:41;;;;;;;2.97;2.40;;;17.40;99.90;;;;;;5041840;28;20254;-34
2022/05/31 07:58:43;;;;;;;2.83;2.30;;;17.50;99.90;;;;;;5050421;28;20208;-35
2022/05/31 08:01:32;;;;;;;3.73;2.23;;;17.80;99.90;;;;;;5021535;28;20279;-35
2022/05/31 08:04:07;;;;;;;3.10;2.53;;;17.90;99.90;;;;;;5033740;28;20196;-34
2022/05/31 08:06:34;;;;;;;5.13;2.30;;;18.10;99.90;;;;;;5032507;28;20185;-34
2022/05/31 08:09:00;;;;;;;2.90;2.20;;;18.30;99.90;;;;;;5049021;28;20194;-36
2022/05/31 08:11:29;;;;;;;4.07;2.55;;;18.50;99.90;;;;;;5050552;28;20286;-36
2022/05/31 08:13:55;;;;;;;5.50;2.40;;;18.70;99.90;;;;;;5032591;28;20181;-36
2022/05/31 08:16:23;;;;;;;4.50;2.78;;;19.00;99.90;;;;;;5049451;28;20181;-34
2022/05/31 08:18:50;;;;;;;6.13;2.63;;;19.20;99.90;;;;;;5048786;28;20202;-35
2022/05/31 08:21:19;;;;;;;3.95;2.50;;;19.30;99.90;;;;;;5032673;28;20202;-35
2022/05/31 08:23:45;;;;;;;3.30;2.10;;;19.10;99.90;;;;;;5049050;28;20178;-34
2022/05/31 08:26:12;;;;;;;3.58;2.15;;;19.10;99.90;;;;;;5049575;28;20185;-34
2022/05/31 08:28:38;;;;;;;4.22;1.90;;;19.30;99.90;;;;;;5052456;28;20201;-34
2022/05/31 08:31:12;;;;;;;2.85;1.90;;;19.40;99.90;;;;;;5072814;28;20201;-34
2022/05/31 08:33:39;;;;;;;4.53;2.42;;;19.60;99.90;;;;;;5072828;28;20248;-35
2022/05/31 08:36:07;;;;;;;2.90;2.03;;;19.80;99.90;;;;;;5072833;28;20645;-35
2022/05/31 08:38:33;;;;;;;2.88;2.15;;;20.00;99.90;;;;;;5055994;28;20185;-35
2022/05/31 08:41:16;;;;;;;5.28;2.00;;;20.10;99.90;;;;;;5056002;28;20215;-34
2022/05/31 08:43:48;;;;;;;3.03;2.20;;;20.30;99.90;;;;;;5055920;28;20286;-35
2022/05/31 08:46:19;;;;;;;3.00;2.22;;;20.50;99.90;;;;;;5072786;28;20181;-36
2022/05/31 08:48:58;;;;;;;3.40;2.00;;;20.50;99.90;;;;;;5055658;28;20203;-36
2022/05/31 08:52:04;;;;;;;4.47;2.33;;;20.70;99.90;;;;;;5072364;28;20292;-34
2022/05/31 08:57:38;;;;;;;4.40;2.05;;;20.90;99.90;;;;;;5073643;28;20193;-35
2022/05/31 09:00:19;;;;;;;3.30;2.15;;;21.20;99.80;;;;;;5072590;28;20174;-35
2022/05/31 09:02:53;;;;;;;4.82;1.77;;;21.30;98.90;;;;;;5055564;28;20740;-34
2022/05/31 09:05:29;;;;;;;4.72;2.00;;;21.30;99.10;;;;;;5055342;28;20226;-34
2022/05/31 09:08:01;;;;;;;3.83;2.00;;;21.00;97.90;;;;;;5072444;28;20669;-35
2022/05/31 09:10:38;;;;;;;4.80;1.90;;;20.90;97.70;;;;;;5055637;28;20227;-36
2022/05/31 09:13:04;;;;;;;4.50;1.50;;;20.80;98.30;;;;;;5055238;28;20209;-35
2022/05/31 09:15:42;;;;;;;2.97;1.85;;;21.00;98.20;;;;;;5055414;28;20235;-36
2022/05/31 09:18:42;;;;;;;4.70;1.92;;;21.40;98.50;;;;;;5077745;22;20224;-89
2022/05/31 09:21:26;;;;;;;2.17;1.52;;;21.50;97.90;;;;;;5055403;28;20205;-90
2022/05/31 09:23:55;;;;;;;3.15;2.00;;;21.50;96.70;;;;;;5054985;28;20177;-90
2022/05/31 09:26:46;;;;;;;2.75;1.98;;;21.40;96.60;;;;;;5055448;28;20203;-90
2022/05/31 09:29:14;;;;;;;2.53;1.65;;;21.50;97.30;;;;;;5055416;28;20299;-90
2022/05/31 09:31:49;;;;;;;2.85;1.83;;;21.60;97.10;;;;;;5054952;28;20225;-90
2022/05/31 09:34:50;;;;;;;2.83;1.77;;;21.90;96.50;;;;;;5055473;28;20203;-89
2022/05/31 09:37:38;;;;;;;3.35;1.45;;;22.00;96.20;;;;;;5062999;28;20173;-90
2022/05/31 09:40:10;;;;;;;4.38;1.48;;;22.30;95.70;;;;;;5046164;28;20237;-90
2022/05/31 09:42:46;;;;;;;2.78;1.48;;;22.40;93.50;;;;;;5055020;28;20220;-91
2022/05/31 09:45:17;;;;;;;1.80;1.42;;;22.80;95.40;;;;;;5055093;28;20211;-90
2022/05/31 09:47:52;;;;;;;2.95;1.80;;;23.20;94.60;;;;;;5062625;28;20175;-90
2022/05/31 09:50:24;;;;;;;2.00;1.60;;;23.30;93.90;;;;;;5044379;28;20208;-90
2022/05/31 09:52:56;;;;;;;2.83;1.48;;;23.50;93.20;;;;;;5045338;28;20173;-90
2022/05/31 09:58:31;;;;;;;4.05;1.50;;;23.30;92.10;;;;;;5063375;28;20181;-90
2022/05/31 10:01:24;;;;;;;2.97;1.55;;;23.40;91.90;;;;;;5060023;28;20256;-92
2022/05/31 10:04:09;;;;;;;3.47;1.33;;;23.50;91.90;;;;;;5051930;28;20265;-91
2022/05/31 10:06:54;;;;;;;6.00;1.45;;;23.70;92.10;;;;;;5060147;28;20189;-90
2022/05/31 10:09:35;;;;;;;3.72;1.55;;;23.80;89.80;;;;;;5049000;28;20180;-91
2022/05/31 10:12:13;;;;;;;3.00;1.73;;;23.90;91.00;;;;;;5043784;28;20189;-90
2022/05/31 10:15:13;;;;;;;3.30;1.60;;;23.60;88.70;;;;;;5047748;28;20181;-90
2022/05/31 10:17:43;;;;;;;2.45;1.30;;;23.70;90.10;;;;;;5012071;28;20190;-91
2022/05/31 10:20:18;;;;;;;3.47;1.70;;;23.80;89.60;;;;;;5045850;28;20228;-91
2022/05/31 10:23:05;;;;;;;3.08;1.48;;;23.90;89.30;;;;;;5042927;28;20228;-91
2022/05/31 10:26:21;;;;;;;2.55;1.40;;;24.20;88.40;;;;;;5065461;28;20208;-91
2022/05/31 10:29:06;;;;;;;1.75;1.50;;;24.70;87.60;;;;;;5051468;28;20184;-90
2022/05/31 10:31:46;;;;;;;3.50;1.60;;;24.70;87.20;;;;;;5050969;28;20201;-91
2022/05/31 10:34:44;;;;;;;2.22;1.40;;;24.80;87.40;;;;;;5053765;28;20177;-91
2022/05/31 10:37:32;;;;;;;3.03;1.52;;;24.70;87.70;;;;;;5054076;28;20197;-90
2022/05/31 10:40:21;;;;;;;2.13;1.38;;;24.60;88.30;;;;;;5053997;28;20183;-91
2022/05/31 10:42:50;;;;;;;1.92;1.23;;;24.80;90.00;;;;;;5053916;28;20711;-91
2022/05/31 10:45:23;;;;;;;2.25;1.40;;;24.90;86.60;;;;;;5053646;28;20180;-90
2022/05/31 10:47:56;;;;;;;3.40;1.50;;;24.60;85.70;;;;;;5053697;28;20180;-90
2022/05/31 10:50:41;;;;;;;1.95;1.50;;;24.60;86.70;;;;;;5053655;28;20181;-90
2022/05/31 10:53:30;;;;;;;1.50;1.40;;;24.60;86.40;;;;;;5052979;28;20181;-90
2022/05/31 10:56:09;;;;;;;2.05;1.55;;;24.70;87.30;;;;;;5055770;28;20176;-90
2022/05/31 10:58:40;;;;;;;4.50;1.50;;;24.70;84.30;;;;;;5055852;28;20169;-90
2022/05/31 11:01:38;;;;;;;2.22;1.48;;;24.50;82.70;;;;;;5056153;28;20213;-90
2022/05/31 11:04:25;;;;;;;2.63;1.48;;;24.30;83.50;;;;;;5073665;28;20243;-90
2022/05/31 11:06:51;;;;;;;2.63;1.67;;;24.40;85.40;;;;;;5055675;28;20189;-90
2022/05/31 11:12:42;;;;;;;2.33;1.33;;;24.70;82.20;;;;;;5072442;28;20205;-90
2022/05/31 11:15:26;;;;;;;2.28;1.33;;;24.40;78.20;;;;;;5056220;28;20180;-90
2022/05/31 11:18:02;;;;;;;2.75;1.30;;;24.60;77.70;;;;;;5056130;28;20184;-90
2022/05/31 11:20:38;;;;;;;1.42;1.30;;;24.50;78.60;;;;;;5055849;28;20176;-90
2022/05/31 11:23:29;;;;;;;1.88;1.20;;;24.50;79.30;;;;;;5049865;23;20310;-40
2022/05/31 11:26:39;;;;;;;2.08;1.20;;;24.50;79.50;;;;;;4991267;28;20223;-40
2022/05/31 11:29:45;;;;;;;3.67;1.60;;;24.40;78.70;;;;;;4977558;28;20212;-41
2022/05/31 11:32:29;;;;;;;1.65;1.20;;;24.40;79.70;;;;;;4986957;28;20184;-40
2022/05/31 11:35:37;;;;;;;3.22;1.40;;;24.80;78.30;;;;;;4986678;28;20244;-40
2022/05/31 11:38:13;;;;;;;1.65;1.10;;;25.10;76.30;;;;;;5050740;23;20221;-36
2022/05/31 11:41:02;;;;;;;1.70;1.08;;;25.10;77.20;;;;;;5028638;28;20255;-36
2022/05/31 11:43:59;;;;;;;3.13;1.40;;;25.40;78.50;;;;;;5029083;28;20281;-36
2022/05/31 11:46:54;;;;;;;2.90;1.20;;;25.30;78.40;;;;;;5029667;28;20202;-36
2022/05/31 11:49:28;;;;;;;3.13;1.25;;;25.40;76.70;;;;;;5012668;28;20174;-36
2022/05/31 11:52:01;;;;;;;1.77;1.17;;;25.50;77.10;;;;;;5013081;28;20182;-36
2022/05/31 11:55:25;;;;;;;2.10;1.35;;;25.70;75.70;;;;;;5012979;28;20190;-36
2022/05/31 11:58:16;;;;;;;1.90;1.30;;;25.70;77.30;;;;;;5009380;28;20261;-38
2022/05/31 12:00:47;;;;;;;6.47;1.60;;;25.80;77.50;;;;;;5008135;28;20207;-36
2022/05/31 12:03:28;;;;;;;3.95;1.58;;;25.60;74.30;;;;;;5010612;28;20187;-36
2022/05/31 12:06:02;;;;;;;3.45;1.20;;;25.50;74.90;;;;;;4996881;28;20190;-36
2022/05/31 12:08:40;;;;;;;2.60;1.30;;;25.60;75.20;;;;;;4997286;28;20179;-36
2022/05/31 12:11:20;;;;;;;5.00;1.20;;;25.50;74.80;;;;;;4997361;28;20186;-38
2022/05/31 12:13:48;;;;;;;2.30;1.20;;;25.70;75.90;;;;;;4996959;28;20187;-37
2022/05/31 12:16:15;;;;;;;4.75;1.80;;;25.50;75.60;;;;;;4996865;28;20234;-38
2022/05/31 12:18:45;;;;;;;2.45;1.20;;;25.30;76.80;;;;;;4996896;28;20179;-36
2022/05/31 12:21:59;;;;;;;1.65;1.05;;;25.00;75.70;;;;;;5014689;28;20217;-36
2022/05/31 12:24:35;;;;;;;2.70;1.40;;;24.80;74.60;;;;;;4976050;28;20191;-35
2022/05/31 12:27:30;;;;;;;2.13;1.33;;;24.50;76.40;;;;;;4990964;28;20219;-36
2022/05/31 12:30:05;;;;;;;3.67;1.50;;;24.50;77.00;;;;;;4996961;28;20679;-36
2022/05/31 12:32:38;;;;;;;1.90;1.20;;;24.50;77.30;;;;;;4996845;28;20178;-37
2022/05/31 12:35:29;;;;;;;2.03;1.23;;;24.50;76.30;;;;;;5014597;28;20187;-36
2022/05/31 12:38:01;;;;;;;2.15;1.27;;;24.50;77.30;;;;;;4996461;28;20211;-37
2022/05/31 12:40:37;;;;;;;3.53;1.20;;;24.30;77.20;;;;;;5013158;28;20191;-36
2022/05/31 12:43:13;;;;;;;3.28;1.27;;;24.30;77.30;;;;;;4996631;28;20187;-36
2022/05/31 12:45:43;;;;;;;5.45;1.38;;;24.40;75.70;;;;;;5011853;28;20259;-35
2022/05/31 12:48:17;;;;;;;1.10;1.00;;;24.40;76.80;;;;;;5029157;28;20687;-37
2022/05/31 12:50:54;;;;;;;1.73;1.10;;;24.50;78.10;;;;;;5012952;28;20183;-35
2022/05/31 12:53:23;;;;;;;3.10;1.23;;;24.60;76.60;;;;;;5014139;28;20186;-35
2022/05/31 12:55:57;;;;;;;2.67;1.20;;;24.80;75.90;;;;;;5014831;28;20288;-36
2022/05/31 12:58:37;;;;;;;5.00;1.33;;;24.80;76.40;;;;;;5030008;28;20192;-36
2022/05/31 13:01:26;;;;;;;3.90;1.20;;;24.60;76.60;;;;;;5020359;28;20289;-37
2022/05/31 13:03:56;;;;;;;2.30;1.30;;;24.40;75.50;;;;;;5033554;28;20179;-36
2022/05/31 13:06:35;;;;;;;2.97;1.00;;;24.20;75.90;;;;;;5041400;28;20203;-35
2022/05/31 13:09:30;;;;;;;2.28;1.23;;;24.10;76.30;;;;;;5002401;28;20194;-35
2022/05/31 13:20:28;;;;;;;1.33;1.00;;;23.50;74.40;;;;;;5051917;28;20189;-35
2022/05/31 13:22:58;;;;;;;3.22;1.27;;;23.70;75.30;;;;;;5013879;28;20190;-35
2022/05/31 13:25:45;;;;;;;1.48;1.10;;;23.90;74.60;;;;;;5038102;28;20222;-35
2022/05/31 13:28:35;;;;;;;2.40;1.00;;;23.90;73.70;;;;;;5009931;28;20190;-40
2022/05/31 13:31:13;;;;;;;3.00;1.30;;;23.90;74.00;;;;;;5022660;28;20193;-40
2022/05/31 13:33:41;;;;;;;1.30;1.10;;;24.00;75.60;;;;;;5019624;28;20210;-36
2022/05/31 13:36:13;;;;;;;3.97;1.10;;;24.40;72.70;;;;;;5028861;28;20191;-37
2022/05/31 13:38:44;;;;;;;2.90;1.25;;;25.00;73.50;;;;;;5000929;28;20263;-41
2022/05/31 13:41:16;;;;;;;2.08;1.23;;;25.40;74.20;;;;;;4999586;28;20608;-38
2022/05/31 13:43:50;;;;;;;1.50;1.10;;;25.60;72.70;;;;;;5032499;28;20254;-39
2022/05/31 13:46:45;;;;;;;3.10;1.42;;;25.70;73.50;;;;;;5029842;28;20215;-38
2022/05/31 13:49:16;;;;;;;2.95;1.40;;;25.70;74.10;;;;;;4999974;28;20183;-37
2022/05/31 13:52:24;;;;;;;2.78;1.20;;;25.80;74.60;;;;;;5026452;28;20654;-40
2022/05/31 13:54:52;;;;;;;1.95;1.20;;;25.70;73.80;;;;;;5025114;28;20198;-37
2022/05/31 13:57:24;;;;;;;3.58;1.40;;;25.40;73.50;;;;;;5014142;28;20205;-37
2022/05/31 13:59:53;;;;;;;3.53;1.20;;;25.20;74.60;;;;;;5030271;28;20178;-36
2022/05/31 14:02:24;;;;;;;1.42;1.30;;;25.00;73.80;;;;;;5029860;28;20199;-39